sensor_id;sensor_type;location;lat;lon;timestamp;temperature;humidity
49765;DHT22;35657;51.204;-4.130;2023-10-08T00:00:45;16.80;99.90
49765;DHT22;35657;51.204;-4.130;2023-10-08T00:03:19;16.70;99.90
49765;DHT22;35657;51.204;-4.130;2023-10-08T00:05:48;16.70;99.90
49765;DHT22;35657;51.204;-4.130;2023-10-08T00:08:17;16.60;99.90
49765;DHT22;35657;51.204;-4.130;2023-10-08T00:10:43;16.60;99.90
49765;DHT22;35657;51.204;-4.130;2023-10-08T00:13:10;16.50;99.90
49765;DHT22;35657;51.204;-4.130;2023-10-08T00:15:38;16.50;99.90
49765;DHT22;35657;51.204;-4.130;2023-10-08T00:18:07;16.50;99.90
49765;DHT22;35657;51.204;-4.130;2023-10-08T00:20:37;16.50;99.90
49765;DHT22;35657;51.204;-4.130;2023-10-08T00:23:42;16.50;99.90
49765;DHT22;35657;51.204;-4.130;2023-10-08T00:26:09;16.70;99.90
49765;DHT22;35657;51.204;-4.130;2023-10-08T00:28:35;16.70;99.90
49765;DHT22;35657;51.204;-4.130;2023-10-08T00:31:03;16.70;99.90
49765;DHT22;35657;51.204;-4.130;2023-10-08T00:33:37;16.80;99.90
49765;DHT22;35657;51.204;-4.130;2023-10-08T00:36:03;16.80;99.90
49765;DHT22;35657;51.204;-4.130;2023-10-08T00:38:46;16.80;99.90
49765;DHT22;35657;51.204;-4.130;2023-10-08T00:41:16;16.80;99.90
49765;DHT22;35657;51.204;-4.130;2023-10-08T00:43:42;16.80;99.90
49765;DHT22;35657;51.204;-4.130;2023-10-08T00:46:10;16.80;99.90
49765;DHT22;35657;51.204;-4.130;2023-10-08T00:48:53;16.80;99.90
49765;DHT22;35657;51.204;-4.130;2023-10-08T00:51:22;16.80;99.90
49765;DHT22;35657;51.204;-4.130;2023-10-08T00:54:02;16.70;99.90
49765;DHT22;35657;51.204;-4.130;2023-10-08T00:56:35;16.80;99.90
49765;DHT22;35657;51.204;-4.130;2023-10-08T00:59:33;16.70;99.90
49765;DHT22;35657;51.204;-4.130;2023-10-08T01:02:09;16.70;99.90
49765;DHT22;35657;51.204;-4.130;2023-10-08T01:04:41;16.70;99.90
49765;DHT22;35657;51.204;-4.130;2023-10-08T01:07:10;16.60;99.90
49765;DHT22;35657;51.204;-4.130;2023-10-08T01:09:42;16.50;99.90
49765;DHT22;35657;51.204;-4.130;2023-10-08T01:12:19;16.40;99.90
49765;DHT22;35657;51.204;-4.130;2023-10-08T01:15:03;16.40;99.90
49765;DHT22;35657;51.204;-4.130;2023-10-08T01:18:04;16.30;99.90
49765;DHT22;35657;51.204;-4.130;2023-10-08T01:20:32;16.30;99.90
49765;DHT22;35657;51.204;-4.130;2023-10-08T01:23:07;16.30;99.90
49765;DHT22;35657;51.204;-4.130;2023-10-08T01:25:47;16.30;99.90
49765;DHT22;35657;51.204;-4.130;2023-10-08T01:28:25;16.20;99.90
49765;DHT22;35657;51.204;-4.130;2023-10-08T01:30:57;16.20;99.90
49765;DHT22;35657;51.204;-4.130;2023-10-08T01:33:26;16.20;99.90
49765;DHT22;35657;51.204;-4.130;2023-10-08T01:36:03;16.20;99.90
49765;DHT22;35657;51.204;-4.130;2023-10-08T01:38:30;16.20;99.90
49765;DHT22;35657;51.204;-4.130;2023-10-08T01:40:58;16.20;99.90
49765;DHT22;35657;51.204;-4.130;2023-10-08T01:43:31;16.20;99.90
49765;DHT22;35657;51.204;-4.130;2023-10-08T01:45:56;16.20;99.90
49765;DHT22;35657;51.204;-4.130;2023-10-08T01:48:22;16.10;99.90
49765;DHT22;35657;51.204;-4.130;2023-10-08T01:50:57;16.10;99.90
49765;DHT22;35657;51.204;-4.130;2023-10-08T01:53:27;16.10;99.90
49765;DHT22;35657;51.204;-4.130;2023-10-08T01:55:53;16.10;99.90
49765;DHT22;35657;51.204;-4.130;2023-10-08T01:58:21;16.10;99.90
49765;DHT22;35657;51.204;-4.130;2023-10-08T02:00:49;16.00;99.90
49765;DHT22;35657;51.204;-4.130;2023-10-08T02:03:16;16.10;99.90
49765;DHT22;35657;51.204;-4.130;2023-10-08T02:05:44;16.10;99.90
49765;DHT22;35657;51.204;-4.130;2023-10-08T02:08:11;16.10;99.90
49765;DHT22;35657;51.204;-4.130;2023-10-08T02:10:42;16.10;99.90
49765;DHT22;35657;51.204;-4.130;2023-10-08T02:13:10;16.00;99.90
49765;DHT22;35657;51.204;-4.130;2023-10-08T02:15:36;16.00;99.90
49765;DHT22;35657;51.204;-4.130;2023-10-08T02:18:06;16.00;99.90
49765;DHT22;35657;51.204;-4.130;2023-10-08T02:20:32;16.00;99.90
49765;DHT22;35657;51.204;-4.130;2023-10-08T02:22:58;16.00;99.90
49765;DHT22;35657;51.204;-4.130;2023-10-08T02:25:25;16.00;99.90
49765;DHT22;35657;51.204;-4.130;2023-10-08T02:27:51;16.00;99.90
49765;DHT22;35657;51.204;-4.130;2023-10-08T02:30:17;15.90;99.90
49765;DHT22;35657;51.204;-4.130;2023-10-08T02:32:43;15.90;99.90
49765;DHT22;35657;51.204;-4.130;2023-10-08T02:35:12;15.90;99.90
49765;DHT22;35657;51.204;-4.130;2023-10-08T02:37:39;15.80;99.90
49765;DHT22;35657;51.204;-4.130;2023-10-08T02:40:11;15.80;99.90
49765;DHT22;35657;51.204;-4.130;2023-10-08T02:42:57;15.80;99.90
49765;DHT22;35657;51.204;-4.130;2023-10-08T02:45:27;15.80;99.90
49765;DHT22;35657;51.204;-4.130;2023-10-08T02:47:53;15.80;99.90
49765;DHT22;35657;51.204;-4.130;2023-10-08T02:50:20;15.80;99.90
49765;DHT22;35657;51.204;-4.130;2023-10-08T02:52:48;15.70;99.90
49765;DHT22;35657;51.204;-4.130;2023-10-08T02:55:16;15.70;99.90
49765;DHT22;35657;51.204;-4.130;2023-10-08T02:57:59;15.80;99.90
49765;DHT22;35657;51.204;-4.130;2023-10-08T03:00:25;15.80;99.90
49765;DHT22;35657;51.204;-4.130;2023-10-08T03:02:58;15.80;99.90
49765;DHT22;35657;51.204;-4.130;2023-10-08T03:05:27;15.90;99.90
49765;DHT22;35657;51.204;-4.130;2023-10-08T03:07:58;16.00;99.90
49765;DHT22;35657;51.204;-4.130;2023-10-08T03:10:24;16.00;99.90
49765;DHT22;35657;51.204;-4.130;2023-10-08T03:12:57;16.00;99.90
49765;DHT22;35657;51.204;-4.130;2023-10-08T03:15:30;16.10;99.90
49765;DHT22;35657;51.204;-4.130;2023-10-08T03:18:00;16.10;99.90
49765;DHT22;35657;51.204;-4.130;2023-10-08T03:20:35;16.10;99.90
49765;DHT22;35657;51.204;-4.130;2023-10-08T03:23:05;16.00;99.90
49765;DHT22;35657;51.204;-4.130;2023-10-08T03:25:57;15.90;99.90
49765;DHT22;35657;51.204;-4.130;2023-10-08T03:28:46;15.90;99.90
49765;DHT22;35657;51.204;-4.130;2023-10-08T03:31:23;15.90;99.90
49765;DHT22;35657;51.204;-4.130;2023-10-08T03:34:09;15.90;99.90
49765;DHT22;35657;51.204;-4.130;2023-10-08T03:36:38;15.90;99.90
49765;DHT22;35657;51.204;-4.130;2023-10-08T03:39:16;15.90;99.90
49765;DHT22;35657;51.204;-4.130;2023-10-08T03:41:45;15.90;99.90
49765;DHT22;35657;51.204;-4.130;2023-10-08T03:44:24;15.90;99.90
49765;DHT22;35657;51.204;-4.130;2023-10-08T03:46:51;15.90;99.90
49765;DHT22;35657;51.204;-4.130;2023-10-08T03:49:18;15.90;99.90
49765;DHT22;35657;51.204;-4.130;2023-10-08T03:51:47;15.90;99.90
49765;DHT22;35657;51.204;-4.130;2023-10-08T03:54:14;15.80;99.90
49765;DHT22;35657;51.204;-4.130;2023-10-08T03:56:40;15.80;99.90
49765;DHT22;35657;51.204;-4.130;2023-10-08T03:59:11;15.80;99.90
49765;DHT22;35657;51.204;-4.130;2023-10-08T04:01:46;15.80;99.90
49765;DHT22;35657;51.204;-4.130;2023-10-08T04:04:15;15.80;99.90
49765;DHT22;35657;51.204;-4.130;2023-10-08T04:06:42;15.80;99.90
49765;DHT22;35657;51.204;-4.130;2023-10-08T04:09:15;15.70;99.90
49765;DHT22;35657;51.204;-4.130;2023-10-08T04:11:51;15.70;99.90
49765;DHT22;35657;51.204;-4.130;2023-10-08T04:14:26;15.80;99.90
49765;DHT22;35657;51.204;-4.130;2023-10-08T04:16:53;15.80;99.90
49765;DHT22;35657;51.204;-4.130;2023-10-08T04:19:21;15.90;99.90
49765;DHT22;35657;51.204;-4.130;2023-10-08T04:21:52;15.90;99.90
49765;DHT22;35657;51.204;-4.130;2023-10-08T04:24:25;15.80;99.90
49765;DHT22;35657;51.204;-4.130;2023-10-08T04:26:57;15.80;99.90
49765;DHT22;35657;51.204;-4.130;2023-10-08T04:29:24;15.70;99.90
49765;DHT22;35657;51.204;-4.130;2023-10-08T04:31:51;15.70;99.90
49765;DHT22;35657;51.204;-4.130;2023-10-08T04:34:27;15.70;99.90
49765;DHT22;35657;51.204;-4.130;2023-10-08T04:36:54;15.70;99.90
49765;DHT22;35657;51.204;-4.130;2023-10-08T04:39:23;15.60;99.90
49765;DHT22;35657;51.204;-4.130;2023-10-08T04:41:58;15.60;99.90
49765;DHT22;35657;51.204;-4.130;2023-10-08T04:44:26;15.60;99.90
49765;DHT22;35657;51.204;-4.130;2023-10-08T04:46:52;15.60;99.90
49765;DHT22;35657;51.204;-4.130;2023-10-08T04:49:19;15.60;99.90
49765;DHT22;35657;51.204;-4.130;2023-10-08T04:52:02;15.60;99.90
49765;DHT22;35657;51.204;-4.130;2023-10-08T04:54:39;15.60;99.90
49765;DHT22;35657;51.204;-4.130;2023-10-08T04:57:07;15.60;99.90
49765;DHT22;35657;51.204;-4.130;2023-10-08T04:59:44;15.60;99.90
49765;DHT22;35657;51.204;-4.130;2023-10-08T05:02:10;15.50;99.90
49765;DHT22;35657;51.204;-4.130;2023-10-08T05:04:47;15.50;99.90
49765;DHT22;35657;51.204;-4.130;2023-10-08T05:07:33;15.50;99.90
49765;DHT22;35657;51.204;-4.130;2023-10-08T05:10:24;15.40;99.90
49765;DHT22;35657;51.204;-4.130;2023-10-08T05:12:53;15.50;99.90
49765;DHT22;35657;51.204;-4.130;2023-10-08T05:15:28;15.60;99.90
49765;DHT22;35657;51.204;-4.130;2023-10-08T05:18:07;15.50;99.90
49765;DHT22;35657;51.204;-4.130;2023-10-08T05:20:49;15.50;99.90
49765;DHT22;35657;51.204;-4.130;2023-10-08T05:23:16;15.40;99.90
49765;DHT22;35657;51.204;-4.130;2023-10-08T05:25:52;15.40;99.90
49765;DHT22;35657;51.204;-4.130;2023-10-08T05:28:31;15.40;99.90
49765;DHT22;35657;51.204;-4.130;2023-10-08T05:31:07;15.40;99.90
49765;DHT22;35657;51.204;-4.130;2023-10-08T05:33:42;15.40;99.90
49765;DHT22;35657;51.204;-4.130;2023-10-08T05:36:26;15.40;99.90
49765;DHT22;35657;51.204;-4.130;2023-10-08T05:39:10;15.50;99.90
49765;DHT22;35657;51.204;-4.130;2023-10-08T05:41:58;15.40;99.90
49765;DHT22;35657;51.204;-4.130;2023-10-08T05:44:45;15.40;99.90
49765;DHT22;35657;51.204;-4.130;2023-10-08T05:47:29;15.40;99.90
49765;DHT22;35657;51.204;-4.130;2023-10-08T05:49:58;15.40;99.90
49765;DHT22;35657;51.204;-4.130;2023-10-08T05:52:47;15.40;99.90
49765;DHT22;35657;51.204;-4.130;2023-10-08T05:55:17;15.30;99.90
49765;DHT22;35657;51.204;-4.130;2023-10-08T05:57:53;15.30;99.90
49765;DHT22;35657;51.204;-4.130;2023-10-08T06:00:41;15.30;99.90
49765;DHT22;35657;51.204;-4.130;2023-10-08T06:03:16;15.30;99.90
49765;DHT22;35657;51.204;-4.130;2023-10-08T06:06:06;15.30;99.90
49765;DHT22;35657;51.204;-4.130;2023-10-08T06:08:39;15.40;99.90
49765;DHT22;35657;51.204;-4.130;2023-10-08T06:11:23;15.40;99.90
49765;DHT22;35657;51.204;-4.130;2023-10-08T06:14:08;15.40;99.90
49765;DHT22;35657;51.204;-4.130;2023-10-08T06:16:43;15.40;99.90
49765;DHT22;35657;51.204;-4.130;2023-10-08T06:19:15;15.30;99.90
49765;DHT22;35657;51.204;-4.130;2023-10-08T06:21:42;15.30;99.90
49765;DHT22;35657;51.204;-4.130;2023-10-08T06:24:09;15.30;99.90
49765;DHT22;35657;51.204;-4.130;2023-10-08T06:26:39;15.30;99.90
49765;DHT22;35657;51.204;-4.130;2023-10-08T06:29:11;15.20;99.90
49765;DHT22;35657;51.204;-4.130;2023-10-08T06:31:56;15.20;99.90
49765;DHT22;35657;51.204;-4.130;2023-10-08T06:34:23;15.20;99.90
49765;DHT22;35657;51.204;-4.130;2023-10-08T06:36:53;15.30;99.90
49765;DHT22;35657;51.204;-4.130;2023-10-08T06:39:23;15.20;99.90
49765;DHT22;35657;51.204;-4.130;2023-10-08T06:41:59;15.20;99.90
49765;DHT22;35657;51.204;-4.130;2023-10-08T06:44:26;15.30;99.90
49765;DHT22;35657;51.204;-4.130;2023-10-08T06:46:53;15.30;99.90
49765;DHT22;35657;51.204;-4.130;2023-10-08T06:49:21;15.30;99.90
49765;DHT22;35657;51.204;-4.130;2023-10-08T06:51:50;15.30;99.90
49765;DHT22;35657;51.204;-4.130;2023-10-08T06:54:16;15.30;99.90
49765;DHT22;35657;51.204;-4.130;2023-10-08T06:56:44;15.30;99.90
49765;DHT22;35657;51.204;-4.130;2023-10-08T06:59:17;15.30;99.90
49765;DHT22;35657;51.204;-4.130;2023-10-08T07:01:43;15.30;99.90
49765;DHT22;35657;51.204;-4.130;2023-10-08T07:04:12;15.30;99.90
49765;DHT22;35657;51.204;-4.130;2023-10-08T07:06:39;15.30;99.90
49765;DHT22;35657;51.204;-4.130;2023-10-08T07:09:06;15.30;99.90
49765;DHT22;35657;51.204;-4.130;2023-10-08T07:11:39;15.30;99.90
49765;DHT22;35657;51.204;-4.130;2023-10-08T07:14:09;15.30;99.90
49765;DHT22;35657;51.204;-4.130;2023-10-08T07:16:36;15.30;99.90
49765;DHT22;35657;51.204;-4.130;2023-10-08T07:19:02;15.30;99.90
49765;DHT22;35657;51.204;-4.130;2023-10-08T07:21:30;15.30;99.90
49765;DHT22;35657;51.204;-4.130;2023-10-08T07:24:05;15.30;99.90
49765;DHT22;35657;51.204;-4.130;2023-10-08T07:26:35;15.30;99.90
49765;DHT22;35657;51.204;-4.130;2023-10-08T07:29:06;15.30;99.90
49765;DHT22;35657;51.204;-4.130;2023-10-08T07:31:36;15.40;99.90
49765;DHT22;35657;51.204;-4.130;2023-10-08T07:34:03;15.40;99.90
49765;DHT22;35657;51.204;-4.130;2023-10-08T07:36:42;15.40;99.90
49765;DHT22;35657;51.204;-4.130;2023-10-08T07:39:09;15.40;99.90
49765;DHT22;35657;51.204;-4.130;2023-10-08T07:41:49;15.50;99.90
49765;DHT22;35657;51.204;-4.130;2023-10-08T07:44:15;15.50;99.90
49765;DHT22;35657;51.204;-4.130;2023-10-08T07:46:41;15.50;99.90
49765;DHT22;35657;51.204;-4.130;2023-10-08T07:49:06;15.50;99.90
49765;DHT22;35657;51.204;-4.130;2023-10-08T07:51:32;15.60;99.90
49765;DHT22;35657;51.204;-4.130;2023-10-08T07:53:58;15.60;99.90
49765;DHT22;35657;51.204;-4.130;2023-10-08T07:56:25;15.70;99.90
49765;DHT22;35657;51.204;-4.130;2023-10-08T07:58:52;15.70;99.90
49765;DHT22;35657;51.204;-4.130;2023-10-08T08:01:22;15.80;99.90
49765;DHT22;35657;51.204;-4.130;2023-10-08T08:03:50;15.80;99.90
49765;DHT22;35657;51.204;-4.130;2023-10-08T08:06:16;15.90;99.90
49765;DHT22;35657;51.204;-4.130;2023-10-08T08:08:42;16.00;99.90
49765;DHT22;35657;51.204;-4.130;2023-10-08T08:11:10;16.10;99.90
49765;DHT22;35657;51.204;-4.130;2023-10-08T08:13:39;16.10;99.90
49765;DHT22;35657;51.204;-4.130;2023-10-08T08:16:10;16.20;99.90
49765;DHT22;35657;51.204;-4.130;2023-10-08T08:18:49;16.20;99.90
49765;DHT22;35657;51.204;-4.130;2023-10-08T08:21:18;16.20;99.90
49765;DHT22;35657;51.204;-4.130;2023-10-08T08:23:46;16.30;99.90
49765;DHT22;35657;51.204;-4.130;2023-10-08T08:26:20;16.30;99.90
49765;DHT22;35657;51.204;-4.130;2023-10-08T08:28:56;16.40;99.90
49765;DHT22;35657;51.204;-4.130;2023-10-08T08:31:23;16.40;99.90
49765;DHT22;35657;51.204;-4.130;2023-10-08T08:33:51;16.40;99.90
49765;DHT22;35657;51.204;-4.130;2023-10-08T08:36:23;16.50;99.90
49765;DHT22;35657;51.204;-4.130;2023-10-08T08:38:49;16.60;99.90
49765;DHT22;35657;51.204;-4.130;2023-10-08T08:41:15;16.60;99.90
49765;DHT22;35657;51.204;-4.130;2023-10-08T08:43:53;16.70;99.90
49765;DHT22;35657;51.204;-4.130;2023-10-08T08:46:35;16.80;99.90
49765;DHT22;35657;51.204;-4.130;2023-10-08T08:49:10;16.90;99.90
49765;DHT22;35657;51.204;-4.130;2023-10-08T08:51:37;17.00;99.90
49765;DHT22;35657;51.204;-4.130;2023-10-08T08:54:04;17.10;99.90
49765;DHT22;35657;51.204;-4.130;2023-10-08T08:56:38;17.10;99.90
49765;DHT22;35657;51.204;-4.130;2023-10-08T08:59:07;17.20;99.90
49765;DHT22;35657;51.204;-4.130;2023-10-08T09:01:38;17.30;99.90
49765;DHT22;35657;51.204;-4.130;2023-10-08T09:04:04;17.50;99.90
49765;DHT22;35657;51.204;-4.130;2023-10-08T09:06:33;17.50;99.90
49765;DHT22;35657;51.204;-4.130;2023-10-08T09:09:00;17.60;99.90
49765;DHT22;35657;51.204;-4.130;2023-10-08T09:11:39;17.60;99.90
49765;DHT22;35657;51.204;-4.130;2023-10-08T09:14:07;17.70;99.90
49765;DHT22;35657;51.204;-4.130;2023-10-08T09:16:35;17.70;99.90
49765;DHT22;35657;51.204;-4.130;2023-10-08T09:19:02;17.80;99.90
49765;DHT22;35657;51.204;-4.130;2023-10-08T09:21:29;17.80;99.90
49765;DHT22;35657;51.204;-4.130;2023-10-08T09:23:56;17.80;99.90
49765;DHT22;35657;51.204;-4.130;2023-10-08T09:26:25;17.80;99.90
49765;DHT22;35657;51.204;-4.130;2023-10-08T09:28:54;17.80;99.90
49765;DHT22;35657;51.204;-4.130;2023-10-08T09:31:23;17.90;99.90
49765;DHT22;35657;51.204;-4.130;2023-10-08T09:33:56;17.90;99.90
49765;DHT22;35657;51.204;-4.130;2023-10-08T09:36:23;17.90;99.90
49765;DHT22;35657;51.204;-4.130;2023-10-08T09:39:07;17.90;99.90
49765;DHT22;35657;51.204;-4.130;2023-10-08T09:41:38;17.90;99.90
49765;DHT22;35657;51.204;-4.130;2023-10-08T09:44:06;17.90;99.90
49765;DHT22;35657;51.204;-4.130;2023-10-08T09:46:37;18.00;99.90
49765;DHT22;35657;51.204;-4.130;2023-10-08T09:49:05;18.00;99.90
49765;DHT22;35657;51.204;-4.130;2023-10-08T09:51:36;18.00;99.90
49765;DHT22;35657;51.204;-4.130;2023-10-08T09:54:11;18.10;99.90
49765;DHT22;35657;51.204;-4.130;2023-10-08T09:56:39;18.10;99.90
49765;DHT22;35657;51.204;-4.130;2023-10-08T09:59:06;18.20;99.90
49765;DHT22;35657;51.204;-4.130;2023-10-08T10:01:36;18.20;99.90
49765;DHT22;35657;51.204;-4.130;2023-10-08T10:04:08;18.30;99.90
49765;DHT22;35657;51.204;-4.130;2023-10-08T10:06:34;18.30;99.90
49765;DHT22;35657;51.204;-4.130;2023-10-08T10:09:02;18.40;99.90
49765;DHT22;35657;51.204;-4.130;2023-10-08T10:11:32;18.40;99.90
49765;DHT22;35657;51.204;-4.130;2023-10-08T10:13:59;18.40;99.90
49765;DHT22;35657;51.204;-4.130;2023-10-08T10:16:25;18.50;99.90
49765;DHT22;35657;51.204;-4.130;2023-10-08T10:18:55;18.50;99.90
49765;DHT22;35657;51.204;-4.130;2023-10-08T10:21:27;18.60;99.90
49765;DHT22;35657;51.204;-4.130;2023-10-08T10:23:54;18.70;99.90
49765;DHT22;35657;51.204;-4.130;2023-10-08T10:29:17;18.80;99.90
49765;DHT22;35657;51.204;-4.130;2023-10-08T10:31:48;19.00;99.90
49765;DHT22;35657;51.204;-4.130;2023-10-08T10:34:16;19.00;99.90
49765;DHT22;35657;51.204;-4.130;2023-10-08T10:36:45;19.10;99.90
49765;DHT22;35657;51.204;-4.130;2023-10-08T10:39:18;19.20;99.90
49765;DHT22;35657;51.204;-4.130;2023-10-08T10:41:59;19.20;99.90
49765;DHT22;35657;51.204;-4.130;2023-10-08T10:44:31;19.20;99.90
49765;DHT22;35657;51.204;-4.130;2023-10-08T10:46:59;19.30;99.90
49765;DHT22;35657;51.204;-4.130;2023-10-08T10:49:47;19.30;99.90
49765;DHT22;35657;51.204;-4.130;2023-10-08T10:52:33;19.30;99.90
49765;DHT22;35657;51.204;-4.130;2023-10-08T10:55:18;19.40;99.90
49765;DHT22;35657;51.204;-4.130;2023-10-08T10:57:48;19.40;99.90
49765;DHT22;35657;51.204;-4.130;2023-10-08T11:00:43;19.50;99.90
49765;DHT22;35657;51.204;-4.130;2023-10-08T11:03:09;19.50;99.90
49765;DHT22;35657;51.204;-4.130;2023-10-08T11:05:56;19.50;99.90
49765;DHT22;35657;51.204;-4.130;2023-10-08T11:08:25;19.60;99.90
49765;DHT22;35657;51.204;-4.130;2023-10-08T11:10:52;19.60;99.90
49765;DHT22;35657;51.204;-4.130;2023-10-08T11:13:20;19.60;99.90
49765;DHT22;35657;51.204;-4.130;2023-10-08T11:15:49;19.70;99.90
49765;DHT22;35657;51.204;-4.130;2023-10-08T11:18:22;19.70;99.90
49765;DHT22;35657;51.204;-4.130;2023-10-08T11:20:50;19.80;99.90
49765;DHT22;35657;51.204;-4.130;2023-10-08T11:23:42;19.80;99.90
49765;DHT22;35657;51.204;-4.130;2023-10-08T11:26:09;19.90;99.90
49765;DHT22;35657;51.204;-4.130;2023-10-08T11:28:38;19.90;99.90
49765;DHT22;35657;51.204;-4.130;2023-10-08T11:31:12;19.90;99.90
49765;DHT22;35657;51.204;-4.130;2023-10-08T11:33:40;20.00;99.90
49765;DHT22;35657;51.204;-4.130;2023-10-08T11:36:08;20.10;99.90
49765;DHT22;35657;51.204;-4.130;2023-10-08T11:38:50;20.10;99.90
49765;DHT22;35657;51.204;-4.130;2023-10-08T11:41:19;20.30;99.90
49765;DHT22;35657;51.204;-4.130;2023-10-08T11:43:52;20.40;99.90
49765;DHT22;35657;51.204;-4.130;2023-10-08T11:46:25;20.50;99.90
49765;DHT22;35657;51.204;-4.130;2023-10-08T11:48:56;20.60;99.90
49765;DHT22;35657;51.204;-4.130;2023-10-08T11:51:24;20.70;99.90
49765;DHT22;35657;51.204;-4.130;2023-10-08T11:53:50;20.80;99.90
49765;DHT22;35657;51.204;-4.130;2023-10-08T11:56:17;20.90;99.90
49765;DHT22;35657;51.204;-4.130;2023-10-08T11:58:47;21.00;99.90
49765;DHT22;35657;51.204;-4.130;2023-10-08T12:01:12;21.00;99.90
49765;DHT22;35657;51.204;-4.130;2023-10-08T12:03:42;21.00;99.90
49765;DHT22;35657;51.204;-4.130;2023-10-08T12:06:11;21.00;99.90
49765;DHT22;35657;51.204;-4.130;2023-10-08T12:08:42;21.00;99.90
49765;DHT22;35657;51.204;-4.130;2023-10-08T12:11:10;21.00;99.90
49765;DHT22;35657;51.204;-4.130;2023-10-08T12:13:43;20.90;99.90
49765;DHT22;35657;51.204;-4.130;2023-10-08T12:16:16;20.90;99.90
49765;DHT22;35657;51.204;-4.130;2023-10-08T12:18:47;21.10;99.90
49765;DHT22;35657;51.204;-4.130;2023-10-08T12:21:27;21.20;99.90
49765;DHT22;35657;51.204;-4.130;2023-10-08T12:23:56;21.40;99.90
49765;DHT22;35657;51.204;-4.130;2023-10-08T12:26:22;21.40;99.90
49765;DHT22;35657;51.204;-4.130;2023-10-08T12:28:48;21.40;99.90
49765;DHT22;35657;51.204;-4.130;2023-10-08T12:31:18;21.40;99.90
49765;DHT22;35657;51.204;-4.130;2023-10-08T12:33:51;21.30;99.90
49765;DHT22;35657;51.204;-4.130;2023-10-08T12:36:28;21.30;99.90
49765;DHT22;35657;51.204;-4.130;2023-10-08T12:38:58;21.40;99.90
49765;DHT22;35657;51.204;-4.130;2023-10-08T12:41:27;21.30;99.90
49765;DHT22;35657;51.204;-4.130;2023-10-08T12:43:53;21.20;99.90
49765;DHT22;35657;51.204;-4.130;2023-10-08T12:46:20;21.10;99.90
49765;DHT22;35657;51.204;-4.130;2023-10-08T12:48:50;20.90;99.90
49765;DHT22;35657;51.204;-4.130;2023-10-08T12:51:24;20.50;99.90
49765;DHT22;35657;51.204;-4.130;2023-10-08T12:53:51;20.30;99.90
49765;DHT22;35657;51.204;-4.130;2023-10-08T12:56:24;20.20;99.90
49765;DHT22;35657;51.204;-4.130;2023-10-08T12:58:58;20.30;99.90
49765;DHT22;35657;51.204;-4.130;2023-10-08T13:01:24;20.10;99.90
49765;DHT22;35657;51.204;-4.130;2023-10-08T13:03:54;20.20;99.90
49765;DHT22;35657;51.204;-4.130;2023-10-08T13:06:26;20.40;99.90
49765;DHT22;35657;51.204;-4.130;2023-10-08T13:08:57;20.20;99.90
49765;DHT22;35657;51.204;-4.130;2023-10-08T13:11:27;20.00;99.90
49765;DHT22;35657;51.204;-4.130;2023-10-08T13:13:56;19.90;99.90
49765;DHT22;35657;51.204;-4.130;2023-10-08T13:16:23;19.80;99.90
49765;DHT22;35657;51.204;-4.130;2023-10-08T13:18:49;19.80;99.90
49765;DHT22;35657;51.204;-4.130;2023-10-08T13:21:16;19.80;99.90
49765;DHT22;35657;51.204;-4.130;2023-10-08T13:23:44;19.80;99.90
49765;DHT22;35657;51.204;-4.130;2023-10-08T13:26:12;19.80;99.90
49765;DHT22;35657;51.204;-4.130;2023-10-08T13:28:43;20.00;99.90
49765;DHT22;35657;51.204;-4.130;2023-10-08T13:31:08;20.30;99.90
49765;DHT22;35657;51.204;-4.130;2023-10-08T13:33:38;20.00;99.90
49765;DHT22;35657;51.204;-4.130;2023-10-08T13:36:05;20.10;99.90
49765;DHT22;35657;51.204;-4.130;2023-10-08T13:38:36;20.30;99.90
49765;DHT22;35657;51.204;-4.130;2023-10-08T13:41:06;20.20;99.90
49765;DHT22;35657;51.204;-4.130;2023-10-08T13:43:40;20.30;99.90
49765;DHT22;35657;51.204;-4.130;2023-10-08T13:46:07;20.30;99.90
49765;DHT22;35657;51.204;-4.130;2023-10-08T13:48:39;20.20;99.90
49765;DHT22;35657;51.204;-4.130;2023-10-08T13:51:06;19.90;99.90
49765;DHT22;35657;51.204;-4.130;2023-10-08T13:53:42;19.80;99.90
49765;DHT22;35657;51.204;-4.130;2023-10-08T13:56:11;19.90;99.90
49765;DHT22;35657;51.204;-4.130;2023-10-08T13:58:38;20.00;99.90
49765;DHT22;35657;51.204;-4.130;2023-10-08T14:01:12;20.00;99.90
49765;DHT22;35657;51.204;-4.130;2023-10-08T14:03:48;19.90;99.90
49765;DHT22;35657;51.204;-4.130;2023-10-08T14:06:17;20.00;99.90
49765;DHT22;35657;51.204;-4.130;2023-10-08T14:08:44;20.00;99.90
49765;DHT22;35657;51.204;-4.130;2023-10-08T14:11:20;19.90;99.90
49765;DHT22;35657;51.204;-4.130;2023-10-08T14:13:51;20.10;99.90
49765;DHT22;35657;51.204;-4.130;2023-10-08T14:16:19;20.00;99.90
49765;DHT22;35657;51.204;-4.130;2023-10-08T14:18:50;19.90;99.90
49765;DHT22;35657;51.204;-4.130;2023-10-08T14:21:22;19.70;99.90
49765;DHT22;35657;51.204;-4.130;2023-10-08T14:23:59;19.70;99.90
49765;DHT22;35657;51.204;-4.130;2023-10-08T14:26:32;19.90;99.90
49765;DHT22;35657;51.204;-4.130;2023-10-08T14:29:02;19.90;99.90
49765;DHT22;35657;51.204;-4.130;2023-10-08T14:31:36;19.70;99.90
49765;DHT22;35657;51.204;-4.130;2023-10-08T14:34:05;19.80;99.90
49765;DHT22;35657;51.204;-4.130;2023-10-08T14:36:34;19.80;99.90
49765;DHT22;35657;51.204;-4.130;2023-10-08T14:39:19;19.90;99.90
49765;DHT22;35657;51.204;-4.130;2023-10-08T14:42:03;19.80;99.90
49765;DHT22;35657;51.204;-4.130;2023-10-08T14:44:47;19.70;99.90
49765;DHT22;35657;51.204;-4.130;2023-10-08T14:47:14;19.70;99.90
49765;DHT22;35657;51.204;-4.130;2023-10-08T14:49:41;19.80;99.90
49765;DHT22;35657;51.204;-4.130;2023-10-08T14:52:08;19.90;99.90
49765;DHT22;35657;51.204;-4.130;2023-10-08T14:54:34;19.80;99.90
49765;DHT22;35657;51.204;-4.130;2023-10-08T14:57:00;19.80;99.90
49765;DHT22;35657;51.204;-4.130;2023-10-08T14:59:28;19.80;99.90
49765;DHT22;35657;51.204;-4.130;2023-10-08T15:01:54;19.60;99.90
49765;DHT22;35657;51.204;-4.130;2023-10-08T15:04:21;19.60;99.90
49765;DHT22;35657;51.204;-4.130;2023-10-08T15:06:48;19.70;99.90
49765;DHT22;35657;51.204;-4.130;2023-10-08T15:09:15;19.80;99.90
49765;DHT22;35657;51.204;-4.130;2023-10-08T15:11:53;19.60;99.90
49765;DHT22;35657;51.204;-4.130;2023-10-08T15:14:19;19.50;99.90
49765;DHT22;35657;51.204;-4.130;2023-10-08T15:16:46;19.50;99.90
49765;DHT22;35657;51.204;-4.130;2023-10-08T15:21:52;19.50;99.90
49765;DHT22;35657;51.204;-4.130;2023-10-08T15:24:21;19.40;99.90
49765;DHT22;35657;51.204;-4.130;2023-10-08T15:26:48;19.40;99.90
49765;DHT22;35657;51.204;-4.130;2023-10-08T15:29:15;19.60;99.90
49765;DHT22;35657;51.204;-4.130;2023-10-08T15:31:41;19.70;99.90
49765;DHT22;35657;51.204;-4.130;2023-10-08T15:34:08;19.80;99.90
49765;DHT22;35657;51.204;-4.130;2023-10-08T15:36:34;19.70;99.90
49765;DHT22;35657;51.204;-4.130;2023-10-08T15:39:00;19.60;99.90
49765;DHT22;35657;51.204;-4.130;2023-10-08T15:41:26;19.70;99.90
49765;DHT22;35657;51.204;-4.130;2023-10-08T15:43:52;19.70;99.90
49765;DHT22;35657;51.204;-4.130;2023-10-08T15:46:21;19.80;99.90